Time;durP1;ratioP1;P1;durP2;ratioP2;P2;SDS_P1;SDS_P2;PMS_P1;PMS_P2;Temp;Humidity;BMP_temperature;BMP_pressure;BME280_temperature;BME280_humidity;BME280_pressure;Samples;Min_cycle;Max_cycle;Signal;HPM_P1;HPM_P2
2023/11/10 00:02:08;;;;;;;7.47;2.40;;;;;;;6.31;100.00;99477.88;5068381;28;20510;-52
2023/11/10 00:04:36;;;;;;;7.95;2.90;;;;;;;6.26;100.00;99478.22;5058547;28;20048;-49
2023/11/10 00:07:05;;;;;;;7.22;3.03;;;;;;;6.25;100.00;99478.31;5052034;28;20049;-47
2023/11/10 00:09:35;;;;;;;4.90;2.50;;;;;;;6.24;100.00;99479.25;5062482;28;20052;-50
2023/11/10 00:12:03;;;;;;;6.63;2.92;;;;;;;6.24;100.00;99477.50;5069577;28;20068;-47
2023/11/10 00:14:33;;;;;;;6.82;3.00;;;;;;;6.24;100.00;99474.91;5069037;28;20092;-51
2023/11/10 00:17:09;;;;;;;7.55;2.80;;;;;;;6.18;100.00;99467.47;5070745;28;20044;-50
2023/11/10 00:19:38;;;;;;;4.57;2.40;;;;;;;6.16;100.00;99469.38;5071658;28;20067;-47
2023/11/10 00:22:06;;;;;;;4.85;2.60;;;;;;;6.16;100.00;99464.16;5071802;28;20048;-50
2023/11/10 00:24:39;;;;;;;8.68;2.78;;;;;;;6.15;100.00;99454.63;5067641;28;20361;-49
2023/11/10 00:27:09;;;;;;;6.03;2.45;;;;;;;6.12;100.00;99461.84;5068343;28;20427;-49
2023/11/10 00:29:40;;;;;;;6.00;2.85;;;;;;;6.12;100.00;99451.38;5068951;28;20493;-49
2023/11/10 00:32:12;;;;;;;5.55;2.28;;;;;;;6.12;100.00;99454.00;5068035;28;20050;-49
2023/11/10 00:34:41;;;;;;;5.88;2.42;;;;;;;6.12;100.00;99446.16;5068375;28;20483;-50
2023/11/10 00:37:09;;;;;;;8.20;2.50;;;;;;;6.10;100.00;99446.28;5068060;28;20466;-48
2023/11/10 00:39:38;;;;;;;6.50;2.50;;;;;;;6.08;100.00;99443.78;5067220;28;20060;-48
2023/11/10 00:42:07;;;;;;;7.07;2.63;;;;;;;6.14;100.00;99439.91;5068105;28;20071;-50
2023/11/10 00:44:36;;;;;;;6.15;2.35;;;;;;;6.11;100.00;99447.09;5068422;28;20048;-51
2023/11/10 00:47:05;;;;;;;6.47;2.25;;;;;;;6.12;100.00;99440.94;5070589;28;20051;-49
2023/11/10 00:49:33;;;;;;;5.80;2.40;;;;;;;6.13;100.00;99438.22;5068458;28;20044;-53
2023/11/10 00:52:01;;;;;;;7.03;2.38;;;;;;;6.17;100.00;99439.69;5069785;28;20044;-47
2023/11/10 00:54:29;;;;;;;6.00;1.95;;;;;;;6.18;100.00;99441.38;5067165;28;20040;-47
2023/11/10 00:56:59;;;;;;;7.03;2.00;;;;;;;6.21;100.00;99442.94;5068550;28;20547;-48
2023/11/10 00:59:27;;;;;;;6.07;2.10;;;;;;;6.22;100.00;99442.81;5067970;28;20060;-50
2023/11/10 01:01:55;;;;;;;6.95;2.17;;;;;;;6.29;100.00;99437.19;5068223;28;20060;-50
2023/11/10 01:04:24;;;;;;;6.07;1.98;;;;;;;6.28;100.00;99438.13;5066693;28;20052;-47
2023/11/10 01:06:52;;;;;;;8.52;2.03;;;;;;;6.33;100.00;99433.41;5068687;28;20045;-48
2023/11/10 01:09:21;;;;;;;5.03;1.98;;;;;;;6.32;100.00;99436.97;5070456;28;20478;-48
2023/11/10 01:11:49;;;;;;;6.43;1.73;;;;;;;6.35;100.00;99436.75;5064234;28;20055;-50
2023/11/10 01:14:20;;;;;;;6.55;2.10;;;;;;;6.31;100.00;99425.66;5067974;28;20033;-51
2023/11/10 01:16:49;;;;;;;8.32;2.15;;;;;;;6.33;100.00;99436.03;5071226;28;20044;-49
2023/11/10 01:19:17;;;;;;;3.80;1.80;;;;;;;6.39;100.00;99427.75;5069179;28;20522;-47
2023/11/10 01:21:46;;;;;;;5.07;1.73;;;;;;;6.39;100.00;99430.38;5071829;28;20389;-50
2023/11/10 01:24:16;;;;;;;6.65;1.80;;;;;;;6.37;100.00;99419.19;5070687;28;20040;-49
2023/11/10 01:26:44;;;;;;;4.85;2.15;;;;;;;6.41;100.00;99420.66;5071758;28;20150;-50
2023/11/10 01:29:12;;;;;;;5.43;1.70;;;;;;;6.40;100.00;99424.19;5073758;28;20052;-49
2023/11/10 01:31:42;;;;;;;5.38;1.52;;;;;;;6.45;100.00;99429.09;5071654;28;20403;-48
2023/11/10 01:34:10;;;;;;;3.83;1.70;;;;;;;6.46;100.00;99418.53;5072457;28;20428;-49
2023/11/10 01:36:38;;;;;;;6.45;2.00;;;;;;;6.47;100.00;99422.81;5074955;28;20056;-47
2023/11/10 01:39:09;;;;;;;3.70;1.67;;;;;;;6.49;100.00;99420.94;5072441;28;20127;-50
2023/11/10 01:41:39;;;;;;;8.05;1.95;;;;;;;6.51;100.00;99421.66;5070462;28;20511;-50
2023/11/10 01:44:07;;;;;;;4.25;1.90;;;;;;;6.52;100.00;99414.69;5071132;28;20052;-48
2023/11/10 01:46:46;;;;;;;5.00;1.75;;;;;;;6.49;100.00;99413.13;5063879;28;20041;-48
2023/11/10 01:49:16;;;;;;;5.13;1.80;;;;;;;6.48;100.00;99406.22;5070550;28;20435;-49
2023/11/10 01:51:45;;;;;;;7.45;1.60;;;;;;;6.54;100.00;99410.97;5065897;28;20052;-49
2023/11/10 01:54:18;;;;;;;5.00;1.73;;;;;;;6.52;100.00;99407.66;5061516;28;20069;-47
2023/11/10 01:56:47;;;;;;;4.75;1.73;;;;;;;6.56;100.00;99405.69;5062222;28;20103;-46
2023/11/10 01:59:16;;;;;;;5.15;1.75;;;;;;;6.55;100.00;99407.44;5053135;28;20047;-47
2023/11/10 02:01:46;;;;;;;8.93;2.10;;;;;;;6.59;100.00;99403.66;5063218;28;20048;-50
2023/11/10 02:04:16;;;;;;;3.70;1.73;;;;;;;6.60;100.00;99394.06;5062025;28;20036;-51
2023/11/10 02:06:46;;;;;;;6.80;1.60;;;;;;;6.59;100.00;99384.56;5055262;28;20123;-50
2023/11/10 02:09:15;;;;;;;5.50;1.80;;;;;;;6.59;100.00;99382.75;5060830;28;20052;-50
2023/11/10 02:11:43;;;;;;;7.47;2.10;;;;;;;6.65;100.00;99375.44;5057819;28;20609;-51
2023/11/10 02:14:13;;;;;;;3.67;1.50;;;;;;;6.65;100.00;99371.03;5052942;28;20043;-52
2023/11/10 02:16:42;;;;;;;4.38;1.50;;;;;;;6.66;100.00;99377.13;5051664;28;20065;-48
2023/11/10 02:19:15;;;;;;;5.65;1.80;;;;;;;6.66;100.00;99370.09;5058576;28;20033;-46
2023/11/10 02:21:44;;;;;;;5.78;1.60;;;;;;;6.66;100.00;99369.28;5060437;28;20062;-47
2023/11/10 02:24:17;;;;;;;4.72;1.83;;;;;;;6.69;100.00;99366.44;5071877;28;20426;-49
2023/11/10 02:26:46;;;;;;;;;;;;;;;6.74;100.00;99373.00;5058401;28;20048;-47
2023/11/10 02:29:15;;;;;;;6.22;1.67;;;;;;;6.74;100.00;99374.78;5062677;28;20055;-48
2023/11/10 02:31:44;;;;;;;6.43;1.85;;;;;;;6.73;100.00;99371.31;5053470;28;20400;-49
2023/11/10 02:34:12;;;;;;;5.93;1.85;;;;;;;6.74;100.00;99374.78;5049678;28;20079;-49
2023/11/10 02:36:41;;;;;;;5.38;1.50;;;;;;;6.73;100.00;99383.56;5057468;28;20037;-48
2023/11/10 02:39:09;;;;;;;7.78;2.03;;;;;;;6.73;100.00;99381.75;5058940;28;20044;-49
2023/11/10 02:41:39;;;;;;;6.50;1.65;;;;;;;6.74;100.00;99377.41;5057646;28;20083;-49
2023/11/10 02:44:09;;;;;;;6.32;2.40;;;;;;;6.73;100.00;99378.31;5054625;28;20056;-51
2023/11/10 02:46:37;;;;;;;3.33;1.58;;;;;;;6.76;100.00;99383.31;5061949;28;20448;-48
2023/11/10 02:49:06;;;;;;;7.40;1.77;;;;;;;6.75;100.00;99382.50;5049642;28;20116;-50
2023/11/10 02:51:34;;;;;;;7.05;2.17;;;;;;;6.72;100.00;99382.72;5056533;28;20098;-48
2023/11/10 02:54:03;;;;;;;6.80;1.77;;;;;;;6.72;100.00;99387.97;5054393;28;20048;-48
2023/11/10 02:56:31;;;;;;;4.50;1.50;;;;;;;6.74;100.00;99386.06;5060705;28;20040;-47
2023/11/10 02:58:59;;;;;;;6.32;1.90;;;;;;;6.77;100.00;99375.38;5054446;28;20522;-48
2023/11/10 03:01:29;;;;;;;8.05;1.83;;;;;;;6.78;100.00;99386.69;5062794;28;20045;-50
2023/11/10 03:03:58;;;;;;;7.55;1.83;;;;;;;6.72;100.00;99382.72;5059610;28;20037;-48
2023/11/10 03:06:26;;;;;;;5.07;1.75;;;;;;;6.76;100.00;99381.56;5064343;28;20049;-51
2023/11/10 03:08:55;;;;;;;5.05;1.70;;;;;;;6.79;100.00;99377.91;5065254;28;20113;-50
2023/11/10 03:11:24;;;;;;;6.30;1.75;;;;;;;6.78;100.00;99381.44;5068804;28;20075;-50
2023/11/10 03:13:54;;;;;;;5.18;1.67;;;;;;;6.79;100.00;99383.13;5071565;28;20044;-48
2023/11/10 03:16:23;;;;;;;5.78;1.50;;;;;;;6.85;100.00;99382.66;5069865;28;20044;-48
2023/11/10 03:18:53;;;;;;;6.22;1.75;;;;;;;6.83;100.00;99384.56;5068689;28;20052;-49
2023/11/10 03:21:23;;;;;;;4.45;1.50;;;;;;;6.83;100.00;99383.72;5069232;28;20117;-50
2023/11/10 03:23:51;;;;;;;8.48;1.92;;;;;;;6.83;100.00;99376.72;5068724;28;20076;-49
2023/11/10 03:26:19;;;;;;;4.07;2.03;;;;;;;6.79;100.00;99379.66;5068364;28;20052;-48
2023/11/10 03:28:48;;;;;;;6.45;2.30;;;;;;;6.84;100.00;99380.97;5067521;28;20063;-50
2023/11/10 03:31:17;;;;;;;7.05;1.88;;;;;;;6.81;100.00;99376.00;5054770;28;20037;-50
2023/11/10 03:33:46;;;;;;;5.60;1.80;;;;;;;6.84;100.00;99386.22;5064166;28;20106;-48
2023/11/10 03:36:16;;;;;;;5.10;2.22;;;;;;;6.82;100.00;99369.81;5061711;28;20431;-49
2023/11/10 03:38:44;;;;;;;3.80;1.73;;;;;;;6.85;100.00;99372.22;5060192;28;20053;-47
2023/11/10 03:41:13;;;;;;;6.35;1.60;;;;;;;6.86;100.00;99367.84;5064885;28;20060;-49
2023/11/10 03:43:41;;;;;;;5.53;1.70;;;;;;;6.90;100.00;99367.50;5068144;28;20044;-50
2023/11/10 03:46:10;;;;;;;4.88;1.40;;;;;;;6.92;100.00;99372.59;5068522;28;20041;-46
2023/11/10 03:48:40;;;;;;;4.22;1.70;;;;;;;6.89;100.00;99365.00;5054442;28;20465;-46
2023/11/10 03:51:10;;;;;;;6.45;2.03;;;;;;;6.91;100.00;99371.78;5056024;28;20103;-47
2023/11/10 03:53:42;;;;;;;4.90;1.60;;;;;;;6.89;100.00;99375.44;5058051;28;20488;-48
2023/11/10 03:56:10;;;;;;;6.10;1.98;;;;;;;6.93;100.00;99375.09;5072039;28;20051;-48
2023/11/10 03:58:38;;;;;;;3.65;1.60;;;;;;;6.91;100.00;99382.22;5067087;28;20506;-46
2023/11/10 04:01:11;;;;;;;5.05;1.80;;;;;;;6.94;100.00;99386.41;5063710;28;20044;-48
2023/11/10 04:03:40;;;;;;;4.10;1.45;;;;;;;6.89;100.00;99371.03;5068513;28;20041;-51
2023/11/10 04:06:09;;;;;;;4.22;1.63;;;;;;;6.89;100.00;99375.44;5067982;28;20048;-46
2023/11/10 04:08:37;;;;;;;4.75;1.30;;;;;;;6.90;100.00;99375.31;5068517;28;20037;-51
2023/11/10 04:11:06;;;;;;;5.78;1.52;;;;;;;6.98;100.00;99376.53;5067722;28;20051;-50
2023/11/10 04:13:35;;;;;;;3.85;1.40;;;;;;;6.95;100.00;99377.59;5057880;28;20119;-47
2023/11/10 04:16:03;;;;;;;3.55;1.30;;;;;;;6.89;100.00;99372.81;5050003;28;20396;-48
2023/11/10 04:18:36;;;;;;;5.68;1.70;;;;;;;6.88;100.00;99376.38;5056796;28;20049;-48
2023/11/10 04:21:05;;;;;;;4.97;1.50;;;;;;;6.89;100.00;99378.88;5051525;28;20516;-49
2023/11/10 04:23:35;;;;;;;2.80;1.17;;;;;;;6.89;100.00;99384.09;5050563;28;20059;-48
2023/11/10 04:26:06;;;;;;;3.75;1.27;;;;;;;6.90;100.00;99380.56;5050404;28;20618;-46
2023/11/10 04:28:38;;;;;;;3.53;1.25;;;;;;;6.88;100.00;99382.44;5050888;28;20451;-47
2023/11/10 04:31:06;;;;;;;5.10;1.10;;;;;;;6.89;100.00;99383.28;5048245;28;20107;-48
2023/11/10 04:33:35;;;;;;;3.10;1.25;;;;;;;6.92;100.00;99375.22;5050388;28;20044;-49
2023/11/10 04:36:06;;;;;;;2.67;1.15;;;;;;;6.90;100.00;99383.16;5049814;28;20040;-48
2023/11/10 04:38:34;;;;;;;3.83;1.33;;;;;;;6.87;100.00;99380.78;5055663;28;20042;-49
2023/11/10 04:41:03;;;;;;;2.72;1.13;;;;;;;6.90;100.00;99377.94;5056594;28;20049;-48
2023/11/10 04:43:31;;;;;;;4.68;1.30;;;;;;;6.89;100.00;99383.28;5061393;28;20053;-46
2023/11/10 04:46:03;;;;;;;3.67;1.23;;;;;;;6.88;100.00;99379.00;5059585;28;20085;-46
2023/11/10 04:48:32;;;;;;;3.78;1.25;;;;;;;6.87;100.00;99382.53;5058646;28;20559;-48
2023/11/10 04:51:03;;;;;;;4.25;1.27;;;;;;;6.87;100.00;99382.53;5058872;28;20068;-49
2023/11/10 04:53:34;;;;;;;4.20;1.30;;;;;;;6.89;100.00;99384.09;5060677;28;20121;-50
2023/11/10 04:56:03;;;;;;;3.95;1.10;;;;;;;6.88;100.00;99387.66;5069920;28;20041;-48
2023/11/10 04:58:31;;;;;;;3.60;1.27;;;;;;;6.88;100.00;99385.03;5072773;28;20044;-51
2023/11/10 05:01:00;;;;;;;5.53;1.30;;;;;;;6.86;100.00;99384.34;5072159;28;20052;-52
2023/11/10 05:03:33;;;;;;;6.40;1.85;;;;;;;6.85;100.00;99380.06;5072067;28;20053;-51
2023/11/10 05:06:01;;;;;;;4.55;1.50;;;;;;;6.90;100.00;99388.41;5072530;28;20139;-49
2023/11/10 05:08:29;;;;;;;3.72;1.48;;;;;;;6.88;100.00;99395.50;5059781;28;20121;-48
2023/11/10 05:10:57;;;;;;;4.88;2.30;;;;;;;6.95;100.00;99388.03;5060365;28;20048;-48
2023/11/10 05:13:26;;;;;;;5.75;1.30;;;;;;;6.92;100.00;99394.31;5057033;28;20078;-48
2023/11/10 05:15:54;;;;;;;4.45;1.20;;;;;;;6.94;100.00;99391.63;5065339;28;20054;-47
2023/11/10 05:18:27;;;;;;;4.85;1.20;;;;;;;6.91;100.00;99387.47;5063652;28;20105;-48
2023/11/10 05:20:58;;;;;;;3.85;1.25;;;;;;;6.94;100.00;99387.22;5065081;28;20041;-46
2023/11/10 05:23:27;;;;;;;4.13;1.30;;;;;;;6.90;100.00;99393.63;5071222;28;20063;-48
2023/11/10 05:25:57;;;;;;;4.28;1.20;;;;;;;6.91;100.00;99382.22;5058636;28;20534;-48
2023/11/10 05:28:25;;;;;;;4.30;1.33;;;;;;;6.94;100.00;99391.63;5068184;28;20040;-44
2023/11/10 05:30:54;;;;;;;5.10;1.70;;;;;;;6.94;100.00;99389.84;5059452;28;20051;-47
2023/11/10 05:33:23;;;;;;;4.82;1.35;;;;;;;6.90;100.00;99398.84;5061760;28;20052;-49
2023/11/10 05:35:52;;;;;;;4.97;1.30;;;;;;;6.92;100.00;99398.72;5054642;28;20044;-47
2023/11/10 05:38:20;;;;;;;5.68;1.30;;;;;;;6.91;100.00;99397.91;5068701;28;20041;-47
2023/11/10 05:40:48;;;;;;;3.38;1.10;;;;;;;6.91;100.00;99404.91;5058111;28;20546;-46
2023/11/10 05:43:19;;;;;;;4.63;1.30;;;;;;;6.90;100.00;99401.47;5065249;28;20040;-50
2023/11/10 05:45:47;;;;;;;5.78;1.45;;;;;;;6.89;100.00;99402.41;5051597;28;20056;-47
2023/11/10 05:48:15;;;;;;;6.63;1.50;;;;;;;6.91;100.00;99404.91;5053204;28;20069;-47
2023/11/10 05:50:47;;;;;;;4.07;1.60;;;;;;;6.91;100.00;99405.75;5053730;28;20064;-50
2023/11/10 05:53:15;;;;;;;3.88;1.40;;;;;;;6.90;100.00;99406.69;5055661;28;20044;-50
2023/11/10 05:55:43;;;;;;;4.28;1.67;;;;;;;6.87;100.00;99401.69;5068038;28;20040;-51
2023/11/10 05:58:12;;;;;;;6.20;1.58;;;;;;;6.90;100.00;99403.25;5061498;28;20044;-52
2023/11/10 06:00:40;;;;;;;4.72;1.30;;;;;;;6.85;100.00;99398.34;5075594;28;20041;-50
2023/11/10 06:03:09;;;;;;;6.35;1.65;;;;;;;6.84;100.00;99401.91;5074451;28;20059;-52
2023/11/10 06:05:39;;;;;;;5.82;2.05;;;;;;;6.83;100.00;99400.25;5073975;28;20226;-53
2023/11/10 06:08:09;;;;;;;6.50;1.95;;;;;;;6.84;100.00;99403.69;5070813;28;20539;-51
2023/11/10 06:10:37;;;;;;;5.88;1.80;;;;;;;6.82;100.00;99413.44;5063959;28;20045;-54
2023/11/10 06:13:05;;;;;;;6.90;1.50;;;;;;;6.79;100.00;99396.19;5051795;28;20048;-52
2023/11/10 06:15:35;;;;;;;4.13;1.30;;;;;;;6.79;100.00;99401.41;5049697;28;20242;-52
2023/11/10 06:18:04;;;;;;;5.90;1.35;;;;;;;6.77;100.00;99400.69;5055847;28;20762;-53
2023/11/10 06:20:32;;;;;;;4.80;1.40;;;;;;;6.79;100.00;99409.25;5071048;28;20403;-53
2023/11/10 06:23:00;;;;;;;6.22;1.38;;;;;;;6.79;100.00;99416.25;5071042;28;20048;-54
2023/11/10 06:25:30;;;;;;;5.90;1.40;;;;;;;6.77;100.00;99421.59;5069616;28;20053;-49
2023/11/10 06:27:58;;;;;;;4.80;1.52;;;;;;;6.80;100.00;99413.50;5071212;28;20098;-54
2023/11/10 06:30:27;;;;;;;5.15;1.42;;;;;;;6.77;100.00;99417.19;5070339;28;20102;-54
2023/11/10 06:32:55;;;;;;;6.07;1.85;;;;;;;6.73;100.00;99413.13;5067789;28;20504;-52
2023/11/10 06:35:23;;;;;;;6.68;2.00;;;;;;;6.73;100.00;99409.69;5057203;28;20454;-53
2023/11/10 06:37:51;;;;;;;4.07;1.20;;;;;;;6.65;100.00;99418.06;5064821;28;20504;-51
2023/11/10 06:40:19;;;;;;;4.05;1.20;;;;;;;6.60;100.00;99420.19;5064987;28;20417;-53
2023/11/10 06:42:48;;;;;;;6.55;1.50;;;;;;;6.55;100.00;99412.66;5070242;28;20102;-51
2023/11/10 06:45:17;;;;;;;4.75;1.25;;;;;;;6.53;100.00;99417.19;5072867;28;20036;-53
2023/11/10 06:47:45;;;;;;;5.32;1.30;;;;;;;6.52;100.00;99417.28;5073623;28;20068;-53
2023/11/10 06:50:13;;;;;;;4.32;1.17;;;;;;;6.48;100.00;99416.66;5073698;28;20725;-53
2023/11/10 06:52:42;;;;;;;6.13;1.45;;;;;;;6.39;100.00;99415.53;5073939;28;20044;-54
2023/11/10 06:55:13;;;;;;;6.32;1.50;;;;;;;6.39;100.00;99415.53;5069816;28;20052;-54
2023/11/10 06:57:42;;;;;;;6.20;1.50;;;;;;;6.38;100.00;99420.84;5070673;28;20098;-53
2023/11/10 07:00:15;;;;;;;6.43;1.48;;;;;;;6.35;100.00;99428.91;5049494;28;20048;-53
2023/11/10 07:02:43;;;;;;;7.93;1.60;;;;;;;6.31;100.00;99424.84;5049046;28;20052;-53
2023/11/10 07:05:11;;;;;;;6.47;1.48;;;;;;;6.28;100.00;99433.72;5047446;28;20408;-52
2023/11/10 07:07:40;;;;;;;6.13;1.40;;;;;;;6.28;100.00;99431.09;5049050;28;20463;-51
2023/11/10 07:10:09;;;;;;;3.45;1.25;;;;;;;6.23;100.00;99433.19;5058975;28;20048;-53
2023/11/10 07:12:37;;;;;;;5.63;1.10;;;;;;;6.15;100.00;99433.75;5058119;28;20124;-51
2023/11/10 07:15:07;;;;;;;5.00;1.40;;;;;;;6.20;100.00;99436.03;5051421;28;20403;-51
2023/11/10 07:17:38;;;;;;;2.97;1.02;;;;;;;6.22;100.00;99429.75;5068719;28;20488;-52
2023/11/10 07:20:09;;;;;;;3.60;1.27;;;;;;;6.18;100.00;99425.69;5067224;28;20391;-51
2023/11/10 07:22:38;;;;;;;4.40;1.08;;;;;;;6.19;100.00;99432.59;5053642;28;20095;-53
2023/11/10 07:25:08;;;;;;;6.35;1.25;;;;;;;6.19;100.00;99426.53;5059506;28;20519;-53
2023/11/10 07:27:36;;;;;;;4.07;1.30;;;;;;;6.18;100.00;99422.25;5061749;28;20076;-53
2023/11/10 07:30:08;;;;;;;3.17;1.08;;;;;;;6.22;100.00;99434.16;5054985;28;20052;-52
2023/11/10 07:32:38;;;;;;;5.00;1.37;;;;;;;6.21;100.00;99435.91;5061371;28;20132;-51
2023/11/10 07:35:07;;;;;;;5.25;1.58;;;;;;;6.28;100.00;99438.94;5047478;28;20056;-54
2023/11/10 07:37:36;;;;;;;7.10;1.55;;;;;;;6.35;100.00;99441.97;5061352;28;20050;-48
2023/11/10 07:40:05;;;;;;;5.20;1.35;;;;;;;6.35;100.00;99442.78;5051981;28;20061;-51
2023/11/10 07:42:34;;;;;;;5.97;1.70;;;;;;;6.38;100.00;99442.59;5058101;28;20056;-52
2023/11/10 07:45:02;;;;;;;5.38;1.60;;;;;;;6.44;100.00;99449.16;5058403;28;20040;-50
2023/11/10 07:47:30;;;;;;;6.07;1.60;;;;;;;6.46;100.00;99452.47;5064059;28;20037;-48
2023/11/10 07:50:03;;;;;;;8.05;1.88;;;;;;;6.53;100.00;99447.66;5051861;28;20045;-50
2023/11/10 07:52:32;;;;;;;4.03;1.52;;;;;;;6.68;100.00;99448.38;5049967;28;20095;-50
2023/11/10 07:55:00;;;;;;;7.88;2.20;;;;;;;6.69;100.00;99444.81;5053708;28;20438;-47
2023/11/10 07:57:28;;;;;;;7.57;2.65;;;;;;;6.74;100.00;99446.16;5054489;28;20577;-50
2023/11/10 07:59:57;;;;;;;6.25;1.85;;;;;;;6.87;100.00;99451.34;5058881;28;20079;-50
2023/11/10 08:02:25;;;;;;;6.10;1.63;;;;;;;6.95;100.00;99442.94;5060094;28;20044;-46
2023/11/10 08:04:53;;;;;;;6.85;2.45;;;;;;;6.97;100.00;99450.66;5051784;28;20044;-48
2023/11/10 08:07:23;;;;;;;8.23;2.03;;;;;;;7.02;100.00;99445.94;5057181;28;20055;-51
2023/11/10 08:09:51;;;;;;;7.07;1.90;;;;;;;7.01;100.00;99444.28;5067605;28;20048;-50
2023/11/10 08:12:20;;;;;;;8.80;2.03;;;;;;;7.01;100.00;99449.50;5064335;28;20040;-50
2023/11/10 08:14:48;;;;;;;5.53;2.10;;;;;;;7.02;100.00;99440.72;5069084;28;20801;-50
2023/11/10 08:17:16;;;;;;;6.18;1.60;;;;;;;7.00;100.00;99442.63;5067520;28;20045;-48
2023/11/10 08:19:45;;;;;;;5.75;1.80;;;;;;;6.97;100.00;99440.22;5067967;28;20131;-50
2023/11/10 08:22:13;;;;;;;5.97;1.77;;;;;;;6.98;100.00;99452.34;5069909;28;20597;-51
2023/11/10 08:24:43;;;;;;;6.22;1.98;;;;;;;6.96;100.00;99444.63;5067928;28;20411;-47
2023/11/10 08:27:11;;;;;;;6.13;1.80;;;;;;;6.93;100.00;99445.66;5068340;28;20442;-52
2023/11/10 08:29:39;;;;;;;9.00;1.80;;;;;;;6.98;100.00;99452.34;5068691;28;20048;-52
2023/11/10 08:32:08;;;;;;;5.68;1.63;;;;;;;6.96;100.00;99447.22;5068096;28;20049;-53
2023/11/10 08:34:36;;;;;;;5.28;1.70;;;;;;;7.00;100.00;99453.06;5068133;28;20403;-54
2023/11/10 08:37:04;;;;;;;6.43;1.70;;;;;;;7.01;100.00;99439.91;5070568;28;20045;-50
2023/11/10 08:39:32;;;;;;;5.38;1.70;;;;;;;7.08;100.00;99446.34;5068223;28;20051;-53
2023/11/10 08:42:03;;;;;;;5.80;1.90;;;;;;;7.06;100.00;99442.16;5068714;28;20048;-51
2023/11/10 08:44:31;;;;;;;6.75;1.80;;;;;;;7.09;100.00;99452.41;5071787;28;20052;-51
2023/11/10 08:46:59;;;;;;;4.32;1.50;;;;;;;7.07;100.00;99452.50;5068391;28;20040;-50
2023/11/10 08:49:27;;;;;;;9.55;2.28;;;;;;;7.08;100.00;99445.50;5064721;28;20094;-53
2023/11/10 08:51:55;;;;;;;5.70;1.67;;;;;;;7.11;100.00;99445.28;5048611;28;20041;-51
2023/11/10 08:54:24;;;;;;;8.73;1.88;;;;;;;7.11;100.00;99451.34;5064029;28;20930;-53
2023/11/10 08:56:52;;;;;;;5.78;1.52;;;;;;;7.17;100.00;99444.00;5060361;28;20044;-53
2023/11/10 08:59:21;;;;;;;5.07;1.60;;;;;;;7.15;100.00;99446.72;5057994;28;20478;-54
2023/11/10 09:01:51;;;;;;;9.77;1.77;;;;;;;7.16;100.00;99443.16;5048180;28;20094;-53
2023/11/10 09:04:20;;;;;;;9.52;1.60;;;;;;;7.17;100.00;99449.22;5058658;28;20427;-53
2023/11/10 09:06:52;;;;;;;6.45;1.63;;;;;;;7.22;100.00;99447.13;5056918;28;20109;-51
2023/11/10 09:09:21;;;;;;;6.97;1.80;;;;;;;7.22;100.00;99441.88;5058820;28;20040;-54
2023/11/10 09:11:50;;;;;;;4.53;1.40;;;;;;;7.17;100.00;99434.38;5056860;28;20063;-54
2023/11/10 09:14:18;;;;;;;12.05;2.22;;;;;;;7.18;100.00;99443.06;5056613;28;20447;-51
2023/11/10 09:16:48;;;;;;;7.68;1.83;;;;;;;7.22;100.00;99439.28;5060391;28;20070;-52
2023/11/10 09:19:17;;;;;;;9.18;2.15;;;;;;;7.23;100.00;99448.78;5052636;28;20048;-50
2023/11/10 09:21:45;;;;;;;10.00;1.85;;;;;;;7.21;100.00;99441.06;5057412;28;20056;-49
2023/11/10 09:24:13;;;;;;;7.20;1.70;;;;;;;7.27;100.00;99434.53;5058419;28;20057;-53
2023/11/10 09:26:43;;;;;;;7.32;1.75;;;;;;;7.36;100.00;99436.47;5056991;28;20123;-55
2023/11/10 09:29:11;;;;;;;8.52;2.30;;;;;;;7.40;100.00;99437.06;5047645;28;20140;-50
2023/11/10 09:31:40;;;;;;;7.53;2.05;;;;;;;7.48;100.00;99442.56;5057543;28;20110;-50
2023/11/10 09:34:09;;;;;;;9.88;2.17;;;;;;;7.58;100.00;99429.63;5063889;28;20117;-52
2023/11/10 09:36:37;;;;;;;10.77;1.98;;;;;;;7.64;100.00;99430.97;5059316;28;20055;-52
2023/11/10 09:39:10;;;;;;;6.72;1.40;;;;;;;7.69;100.00;99428.81;5054995;28;20515;-51
2023/11/10 09:41:45;;;;;;;10.13;2.63;;;;;;;7.79;100.00;99430.63;5068631;28;20530;-53
2023/11/10 09:44:14;;;;;;;5.53;1.50;;;;;;;7.76;100.00;99419.56;5053279;28;20039;-49
2023/11/10 09:46:44;;;;;;;9.25;1.90;;;;;;;7.77;100.00;99427.31;5053981;28;20032;-57
2023/11/10 09:49:14;;;;;;;9.35;2.15;;;;;;;7.77;100.00;99434.31;5065514;28;20483;-57
2023/11/10 09:51:43;;;;;;;12.10;2.10;;;;;;;7.77;100.00;99426.44;5061949;28;20384;-57
2023/11/10 09:54:11;;;;;;;9.23;1.88;;;;;;;7.84;100.00;99432.06;5070711;28;20137;-58
2023/11/10 09:56:40;;;;;;;7.32;1.77;;;;;;;7.85;100.00;99424.09;5072129;28;20049;-57
2023/11/10 09:59:09;;;;;;;6.32;1.60;;;;;;;7.90;100.00;99426.38;5073232;28;20122;-57
2023/11/10 10:01:38;;;;;;;9.32;2.03;;;;;;;7.87;100.00;99422.19;5074323;28;20071;-57
2023/11/10 10:04:07;;;;;;;9.00;1.95;;;;;;;7.89;100.00;99420.28;5073375;28;20052;-57
2023/11/10 10:06:39;;;;;;;8.95;1.90;;;;;;;7.94;100.00;99410.28;5073520;28;20055;-57
2023/11/10 10:09:09;;;;;;;6.60;2.03;;;;;;;8.02;100.00;99406.28;5072023;28;20044;-57
2023/11/10 10:11:37;;;;;;;8.55;1.90;;;;;;;8.00;100.00;99405.53;5074451;28;20547;-57
2023/11/10 10:14:05;;;;;;;6.50;1.50;;;;;;;8.02;100.00;99407.09;5073297;28;20379;-58
2023/11/10 10:16:33;;;;;;;9.50;2.20;;;;;;;7.98;100.00;99407.47;5073295;28;20395;-57
2023/11/10 10:19:04;;;;;;;10.05;1.88;;;;;;;8.00;100.00;99411.59;5074601;28;20503;-57
2023/11/10 10:21:42;;;;;;;9.40;1.90;;;;;;;8.04;100.00;99404.34;5073275;28;20132;-58
2023/11/10 10:24:10;;;;;;;10.40;1.98;;;;;;;8.00;100.00;99402.94;5072560;28;20059;-57
2023/11/10 10:26:40;;;;;;;6.35;1.60;;;;;;;8.05;100.00;99409.47;5072661;28;20056;-58
2023/11/10 10:29:08;;;;;;;10.13;2.08;;;;;;;8.08;100.00;99401.38;5072627;28;20048;-57
2023/11/10 10:31:37;;;;;;;9.75;2.03;;;;;;;8.12;100.00;99401.97;5073065;28;20170;-57
2023/11/10 10:34:06;;;;;;;6.32;1.67;;;;;;;8.16;100.00;99400.78;5072307;28;20123;-50
2023/11/10 10:36:35;;;;;;;9.68;2.03;;;;;;;8.13;100.00;99395.78;5072552;28;20056;-57
2023/11/10 10:39:10;;;;;;;9.15;1.85;;;;;;;8.13;100.00;99396.63;5071893;28;20480;-58
2023/11/10 10:41:39;;;;;;;8.02;1.80;;;;;;;8.08;100.00;99401.38;5072559;28;20056;-58
2023/11/10 10:44:08;;;;;;;10.98;2.00;;;;;;;8.07;100.00;99394.50;5072317;28;20466;-57
2023/11/10 10:46:38;;;;;;;8.82;1.85;;;;;;;8.05;100.00;99395.56;5071468;28;20090;-58
2023/11/10 10:49:12;;;;;;;8.65;1.90;;;;;;;8.05;100.00;99399.00;5068738;28;20040;-57
2023/11/10 10:51:40;;;;;;;4.65;1.70;;;;;;;7.94;100.00;99397.19;5069951;28;20514;-58
2023/11/10 10:54:13;;;;;;;9.20;1.80;;;;;;;7.89;100.00;99388.03;5069439;28;20084;-58
2023/11/10 10:56:41;;;;;;;8.52;1.88;;;;;;;7.85;100.00;99389.22;5070385;28;20132;-57
2023/11/10 10:59:13;;;;;;;7.03;1.83;;;;;;;7.85;100.00;99384.00;5070198;28;20052;-50
2023/11/10 11:01:43;;;;;;;6.40;2.00;;;;;;;7.86;100.00;99376.03;5069769;28;20082;-48
2023/11/10 11:04:29;;;;;;;10.10;2.08;;;;;;;7.94;100.00;99378.06;5068089;28;20044;-57
2023/11/10 11:07:27;;;;;;;7.30;1.73;;;;;;;7.82;100.00;99371.97;5070218;28;20117;-56
2023/11/10 11:10:21;;;;;;;6.38;1.60;;;;;;;7.84;100.00;99377.09;5069886;28;20036;-58
2023/11/10 11:13:18;;;;;;;7.55;1.83;;;;;;;7.81;100.00;99369.47;5070563;28;20051;-58
2023/11/10 11:15:57;;;;;;;11.57;2.13;;;;;;;7.85;100.00;99360.44;5072501;28;20388;-58
2023/11/10 11:18:47;;;;;;;8.25;1.80;;;;;;;7.89;100.00;99372.34;5069309;28;20076;-57
2023/11/10 11:21:16;;;;;;;12.43;2.75;;;;;;;7.73;100.00;99363.06;5070938;28;20551;-57
2023/11/10 11:23:50;;;;;;;8.95;2.40;;;;;;;7.66;100.00;99364.47;5073038;28;20481;-57
2023/11/10 11:26:19;;;;;;;7.45;2.13;;;;;;;7.60;100.00;99360.53;5071502;28;20048;-58
2023/11/10 11:28:47;;;;;;;6.20;1.85;;;;;;;7.57;100.00;99365.19;5070439;28;20792;-57
2023/11/10 11:31:17;;;;;;;8.70;1.85;;;;;;;7.60;100.00;99357.09;5069448;28;20507;-57
2023/11/10 11:33:46;;;;;;;6.85;1.70;;;;;;;7.61;100.00;99356.97;5070967;28;20067;-57
2023/11/10 11:36:16;;;;;;;5.75;1.23;;;;;;;7.65;100.00;99364.59;5072585;28;20419;-57
2023/11/10 11:38:46;;;;;;;7.43;1.50;;;;;;;7.63;100.00;99364.69;5073012;28;20131;-58
2023/11/10 11:41:15;;;;;;;6.00;1.50;;;;;;;7.61;100.00;99367.44;5068497;28;20124;-58
2023/11/10 11:43:55;;;;;;;6.28;1.80;;;;;;;7.51;100.00;99358.63;5069504;28;20136;-57
2023/11/10 11:46:34;;;;;;;6.63;1.90;;;;;;;7.54;100.00;99362.78;5069025;28;20064;-57